This is the latest recevied weather packets stored in our database for station/object iz1wiy-2. If no packets are shown the sender has not sent any weather packets the latest 10 day(s).
| Time | Temp. | Humidity | Pressure | Rain* | Wind** | Luminosity | Snow |
|---|---|---|---|---|---|---|---|
| 1778263803 | 21.11° C | 46% | 1013.4 hPa | 0 mm | - | - | - |
| 1778263503 | 21.11° C | 44% | 1013.5 hPa | 0 mm | - | - | - |
| 1778263204 | 21.11° C | 44% | 1013.3 hPa | 0 mm | - | - | - |
| 1778262903 | 21.67° C | 43% | 1013.2 hPa | 0 mm | - | - | - |
| 1778262603 | 21.67° C | 41% | 1013.1 hPa | 0 mm | - | - | - |
| 1778262303 | 22.22° C | 41% | 1013.1 hPa | 0 mm | - | - | - |
| 1778262004 | 22.22° C | 40% | 1013 hPa | 0 mm | - | - | - |
| 1778261703 | 22.22° C | 40% | 1012.9 hPa | 0 mm | - | - | - |
| 1778261404 | 22.78° C | 37% | 1012.9 hPa | 0 mm | - | - | - |
| 1778261103 | 23.33° C | 36% | 1012.9 hPa | 0 mm | - | - | - |
| 1778260803 | 23.33° C | 34% | 1012.9 hPa | 0 mm | - | - | - |
| 1778260503 | 23.89° C | 33% | 1013 hPa | 0 mm | - | - | - |
| 1778260203 | 23.89° C | 33% | 1012.8 hPa | 0 mm | - | - | - |
| 1778259903 | 24.44° C | 32% | 1012.8 hPa | 0 mm | - | - | - |
| 1778259604 | 24.44° C | 34% | 1012.7 hPa | 0 mm | - | - | - |
| 1778259303 | 24.44° C | 34% | 1012.7 hPa | 0 mm | - | - | - |
| 1778259003 | 23.89° C | 35% | 1012.7 hPa | 0 mm | - | - | - |
| 1778258703 | 24.44° C | 35% | 1012.6 hPa | 0 mm | - | - | - |
| 1778258403 | 25° C | 32% | 1012.6 hPa | 0 mm | - | - | - |
| 1778258103 | 24.44° C | 35% | 1012.6 hPa | 0 mm | - | - | - |
| 1778257803 | 24.44° C | 35% | 1012.6 hPa | 0 mm | - | - | - |
| 1778257503 | 24.44° C | 35% | 1012.7 hPa | 0 mm | - | - | - |
| 1778257203 | 24.44° C | 36% | 1012.6 hPa | 0 mm | - | - | - |
| 1778256903 | 24.44° C | 37% | 1012.6 hPa | 0 mm | - | - | - |
| 1778256604 | 24.44° C | 34% | 1012.6 hPa | 0 mm | - | - | - |
* Rain latest hour (hover to see other rain measurements)
** Current wind speed in m/s (hover to see current wind gust speed)